sensor_id;sensor_type;location;lat;lon;timestamp;pressure;altitude;pressure_sealevel;temperature;humidity
41947;BME280;27638;42.184;24.848;2024-02-15T00:00:03;100199.38;;;9.54;62.71
41947;BME280;27638;42.184;24.848;2024-02-15T00:02:33;100208.84;;;9.57;62.91
41947;BME280;27638;42.184;24.848;2024-02-15T00:04:58;100211.47;;;9.57;62.97
41947;BME280;27638;42.184;24.848;2024-02-15T00:07:24;100209.97;;;9.54;63.61
41947;BME280;27638;42.184;24.848;2024-02-15T00:09:49;100198.69;;;9.52;62.46
41947;BME280;27638;42.184;24.848;2024-02-15T00:12:15;100209.66;;;9.57;62.92
41947;BME280;27638;42.184;24.848;2024-02-15T00:14:41;100208.56;;;9.50;62.84
41947;BME280;27638;42.184;24.848;2024-02-15T00:17:07;100213.31;;;9.47;63.19
41947;BME280;27638;42.184;24.848;2024-02-15T00:19:32;100209.56;;;9.49;63.26
41947;BME280;27638;42.184;24.848;2024-02-15T00:21:57;100209.69;;;9.48;62.79
41947;BME280;27638;42.184;24.848;2024-02-15T00:24:23;100207.34;;;9.45;62.67
41947;BME280;27638;42.184;24.848;2024-02-15T00:26:52;100211.94;;;9.43;63.17
41947;BME280;27638;42.184;24.848;2024-02-15T00:29:18;100218.75;;;9.45;63.27
41947;BME280;27638;42.184;24.848;2024-02-15T00:31:44;100212.34;;;9.48;62.78
41947;BME280;27638;42.184;24.848;2024-02-15T00:34:09;100214.41;;;9.54;62.73
41947;BME280;27638;42.184;24.848;2024-02-15T00:36:35;100216.91;;;9.55;63.09
41947;BME280;27638;42.184;24.848;2024-02-15T00:39:00;100214.97;;;9.57;62.97
41947;BME280;27638;42.184;24.848;2024-02-15T00:41:26;100214.69;;;9.51;62.52
41947;BME280;27638;42.184;24.848;2024-02-15T00:43:53;100213.03;;;9.50;63.04
41947;BME280;27638;42.184;24.848;2024-02-15T00:46:18;100210.13;;;9.43;62.88
41947;BME280;27638;42.184;24.848;2024-02-15T00:48:43;100218.19;;;9.42;63.56
41947;BME280;27638;42.184;24.848;2024-02-15T00:51:09;100211.09;;;9.42;63.39
41947;BME280;27638;42.184;24.848;2024-02-15T00:53:34;100211.25;;;9.41;62.84
41947;BME280;27638;42.184;24.848;2024-02-15T00:56:00;100204.44;;;9.38;63.37
41947;BME280;27638;42.184;24.848;2024-02-15T00:58:26;100210.69;;;9.37;63.28
41947;BME280;27638;42.184;24.848;2024-02-15T01:00:52;100211.09;;;9.33;63.69
41947;BME280;27638;42.184;24.848;2024-02-15T01:03:19;100213.59;;;9.34;63.68
41947;BME280;27638;42.184;24.848;2024-02-15T01:05:44;100216.69;;;9.39;63.00
41947;BME280;27638;42.184;24.848;2024-02-15T01:08:10;100213.06;;;9.31;63.71
41947;BME280;27638;42.184;24.848;2024-02-15T01:10:36;100206.25;;;9.28;63.76
41947;BME280;27638;42.184;24.848;2024-02-15T01:13:02;100206.53;;;9.25;64.38
41947;BME280;27638;42.184;24.848;2024-02-15T01:15:27;100208.59;;;9.31;64.03
41947;BME280;27638;42.184;24.848;2024-02-15T01:17:54;100204.88;;;9.24;63.94
41947;BME280;27638;42.184;24.848;2024-02-15T01:20:19;100206.25;;;9.28;64.26
41947;BME280;27638;42.184;24.848;2024-02-15T01:22:46;100211.09;;;9.33;63.94
41947;BME280;27638;42.184;24.848;2024-02-15T01:25:12;100198.75;;;9.23;63.75
41947;BME280;27638;42.184;24.848;2024-02-15T01:27:38;100201.13;;;9.17;63.86
41947;BME280;27638;42.184;24.848;2024-02-15T01:30:04;100203.91;;;9.15;64.23
41947;BME280;27638;42.184;24.848;2024-02-15T01:32:30;100200.84;;;9.10;63.74
41947;BME280;27638;42.184;24.848;2024-02-15T01:34:56;100203.50;;;9.10;64.12
41947;BME280;27638;42.184;24.848;2024-02-15T01:37:21;100199.47;;;9.06;63.97
41947;BME280;27638;42.184;24.848;2024-02-15T01:39:48;100207.41;;;9.06;64.03
41947;BME280;27638;42.184;24.848;2024-02-15T01:42:13;100199.59;;;9.05;64.02
41947;BME280;27638;42.184;24.848;2024-02-15T01:44:40;100202.25;;;9.05;64.16
41947;BME280;27638;42.184;24.848;2024-02-15T01:47:06;100207.97;;;9.00;64.20
41947;BME280;27638;42.184;24.848;2024-02-15T01:49:32;100209.47;;;9.03;64.24
41947;BME280;27638;42.184;24.848;2024-02-15T01:51:58;100200.31;;;8.97;64.50
41947;BME280;27638;42.184;24.848;2024-02-15T01:54:26;100201.97;;;8.98;64.20
41947;BME280;27638;42.184;24.848;2024-02-15T01:56:53;100205.88;;;8.94;64.72
41947;BME280;27638;42.184;24.848;2024-02-15T01:59:22;100208.38;;;8.86;64.65
41947;BME280;27638;42.184;24.848;2024-02-15T02:01:48;100206.31;;;8.80;65.18
41947;BME280;27638;42.184;24.848;2024-02-15T02:04:14;100210.19;;;8.66;65.63
41947;BME280;27638;42.184;24.848;2024-02-15T02:06:39;100208.09;;;8.70;65.64
41947;BME280;27638;42.184;24.848;2024-02-15T02:09:06;100201.16;;;8.69;65.52
41947;BME280;27638;42.184;24.848;2024-02-15T02:11:35;100208.81;;;8.72;65.13
41947;BME280;27638;42.184;24.848;2024-02-15T02:14:01;100217.97;;;8.68;65.25
41947;BME280;27638;42.184;24.848;2024-02-15T02:16:30;100214.22;;;8.60;65.48
41947;BME280;27638;42.184;24.848;2024-02-15T02:19:00;100223.81;;;8.61;65.32
41947;BME280;27638;42.184;24.848;2024-02-15T02:21:26;100219.78;;;8.67;65.50
41947;BME280;27638;42.184;24.848;2024-02-15T02:24:03;100231.16;;;8.68;65.40
41947;BME280;27638;42.184;24.848;2024-02-15T02:26:33;100231.72;;;8.61;65.34
41947;BME280;27638;42.184;24.848;2024-02-15T02:29:00;100230.34;;;8.57;64.93
41947;BME280;27638;42.184;24.848;2024-02-15T02:31:28;100232.81;;;8.49;65.39
41947;BME280;27638;42.184;24.848;2024-02-15T02:33:54;100236.84;;;8.44;65.79
41947;BME280;27638;42.184;24.848;2024-02-15T02:36:20;100233.06;;;8.37;65.73
41947;BME280;27638;42.184;24.848;2024-02-15T02:38:45;100242.13;;;8.44;66.08
41947;BME280;27638;42.184;24.848;2024-02-15T02:41:15;100242.53;;;8.49;65.95
41947;BME280;27638;42.184;24.848;2024-02-15T02:43:40;100239.75;;;8.41;65.52
41947;BME280;27638;42.184;24.848;2024-02-15T02:46:08;100235.22;;;8.31;65.81
41947;BME280;27638;42.184;24.848;2024-02-15T02:48:36;100237.78;;;8.33;65.98
41947;BME280;27638;42.184;24.848;2024-02-15T02:51:01;100236.28;;;8.40;66.27
41947;BME280;27638;42.184;24.848;2024-02-15T02:53:27;100239.34;;;8.45;65.68
41947;BME280;27638;42.184;24.848;2024-02-15T02:55:55;100242.13;;;8.44;65.61
41947;BME280;27638;42.184;24.848;2024-02-15T02:58:21;100242.38;;;8.41;66.14
41947;BME280;27638;42.184;24.848;2024-02-15T03:00:48;100243.22;;;8.41;65.63
41947;BME280;27638;42.184;24.848;2024-02-15T03:03:15;100241.00;;;8.37;65.71
41947;BME280;27638;42.184;24.848;2024-02-15T03:05:40;100240.63;;;8.30;66.32
41947;BME280;27638;42.184;24.848;2024-02-15T03:08:08;100242.00;;;8.24;66.14
41947;BME280;27638;42.184;24.848;2024-02-15T03:10:34;100244.09;;;8.21;66.59
41947;BME280;27638;42.184;24.848;2024-02-15T03:12:59;100245.06;;;8.20;66.05
41947;BME280;27638;42.184;24.848;2024-02-15T03:15:25;100247.56;;;8.21;66.31
41947;BME280;27638;42.184;24.848;2024-02-15T03:17:50;100251.72;;;8.14;66.24
41947;BME280;27638;42.184;24.848;2024-02-15T03:20:16;100246.25;;;8.06;66.65
41947;BME280;27638;42.184;24.848;2024-02-15T03:22:55;100249.16;;;8.03;67.06
41947;BME280;27638;42.184;24.848;2024-02-15T03:25:21;100217.19;;;7.87;66.94
41947;BME280;27638;42.184;24.848;2024-02-15T03:27:53;100245.00;;;8.00;67.04
41947;BME280;27638;42.184;24.848;2024-02-15T03:30:19;100244.28;;;7.98;66.99
41947;BME280;27638;42.184;24.848;2024-02-15T03:32:46;100248.19;;;8.04;66.91
41947;BME280;27638;42.184;24.848;2024-02-15T03:35:14;100254.47;;;8.13;66.61
41947;BME280;27638;42.184;24.848;2024-02-15T03:37:40;100250.47;;;8.18;65.96
41947;BME280;27638;42.184;24.848;2024-02-15T03:40:08;100250.59;;;8.17;66.40
41947;BME280;27638;42.184;24.848;2024-02-15T03:42:34;100247.56;;;8.21;65.93
41947;BME280;27638;42.184;24.848;2024-02-15T03:45:03;100250.47;;;8.18;66.19
41947;BME280;27638;42.184;24.848;2024-02-15T03:47:28;100256.03;;;8.25;65.82
41947;BME280;27638;42.184;24.848;2024-02-15T03:49:54;100255.63;;;8.29;65.51
41947;BME280;27638;42.184;24.848;2024-02-15T03:52:21;100262.66;;;8.40;65.07
41947;BME280;27638;42.184;24.848;2024-02-15T03:54:47;100266.00;;;8.42;65.51
41947;BME280;27638;42.184;24.848;2024-02-15T03:57:12;100268.78;;;8.41;64.70
41947;BME280;27638;42.184;24.848;2024-02-15T03:59:38;100266.72;;;8.44;65.08
41947;BME280;27638;42.184;24.848;2024-02-15T04:02:05;100262.97;;;8.47;64.90
41947;BME280;27638;42.184;24.848;2024-02-15T04:04:36;100271.44;;;8.50;64.39
41947;BME280;27638;42.184;24.848;2024-02-15T04:07:02;100271.16;;;8.44;64.33
41947;BME280;27638;42.184;24.848;2024-02-15T04:09:28;100265.56;;;8.37;64.77
41947;BME280;27638;42.184;24.848;2024-02-15T04:11:53;100265.16;;;8.42;64.34
41947;BME280;27638;42.184;24.848;2024-02-15T04:14:22;100258.78;;;8.44;64.54
41947;BME280;27638;42.184;24.848;2024-02-15T04:16:48;100257.25;;;8.42;64.39
41947;BME280;27638;42.184;24.848;2024-02-15T04:19:14;100258.50;;;8.38;63.91
41947;BME280;27638;42.184;24.848;2024-02-15T04:21:40;100262.94;;;8.37;64.73
41947;BME280;27638;42.184;24.848;2024-02-15T04:24:06;100252.38;;;8.37;64.36
41947;BME280;27638;42.184;24.848;2024-02-15T04:26:31;100262.13;;;8.46;64.45
41947;BME280;27638;42.184;24.848;2024-02-15T04:28:58;100265.47;;;8.48;63.96
41947;BME280;27638;42.184;24.848;2024-02-15T04:31:24;100258.09;;;8.52;63.80
41947;BME280;27638;42.184;24.848;2024-02-15T04:33:53;100264.75;;;8.46;64.06
41947;BME280;27638;42.184;24.848;2024-02-15T04:36:19;100264.34;;;8.41;63.98
41947;BME280;27638;42.184;24.848;2024-02-15T04:38:51;100263.06;;;8.36;63.95
41947;BME280;27638;42.184;24.848;2024-02-15T04:41:18;100277.28;;;8.23;64.39
41947;BME280;27638;42.184;24.848;2024-02-15T04:43:46;100277.38;;;8.33;64.30
41947;BME280;27638;42.184;24.848;2024-02-15T04:46:12;100271.47;;;8.29;64.48
41947;BME280;27638;42.184;24.848;2024-02-15T04:48:39;100275.22;;;8.27;64.57
41947;BME280;27638;42.184;24.848;2024-02-15T04:51:07;100272.56;;;8.27;64.61
41947;BME280;27638;42.184;24.848;2024-02-15T04:53:32;100274.38;;;8.26;64.19
41947;BME280;27638;42.184;24.848;2024-02-15T04:55:58;100281.31;;;8.27;64.46
41947;BME280;27638;42.184;24.848;2024-02-15T04:58:26;100279.66;;;8.26;64.77
41947;BME280;27638;42.184;24.848;2024-02-15T05:00:54;100275.03;;;8.40;64.21
41947;BME280;27638;42.184;24.848;2024-02-15T05:03:24;100281.41;;;8.37;63.89
41947;BME280;27638;42.184;24.848;2024-02-15T05:05:49;100273.63;;;8.36;64.10
41947;BME280;27638;42.184;24.848;2024-02-15T05:08:15;100278.22;;;8.34;64.25
41947;BME280;27638;42.184;24.848;2024-02-15T05:10:41;100278.22;;;8.34;63.88
41947;BME280;27638;42.184;24.848;2024-02-15T05:13:06;100277.97;;;8.25;64.26
41947;BME280;27638;42.184;24.848;2024-02-15T05:15:33;100278.25;;;8.22;64.37
41947;BME280;27638;42.184;24.848;2024-02-15T05:17:58;100282.56;;;8.23;64.47
41947;BME280;27638;42.184;24.848;2024-02-15T05:20:26;100276.75;;;8.29;64.01
41947;BME280;27638;42.184;24.848;2024-02-15T05:22:52;100280.19;;;8.20;64.28
41947;BME280;27638;42.184;24.848;2024-02-15T05:25:19;100287.00;;;8.23;64.36
41947;BME280;27638;42.184;24.848;2024-02-15T05:27:48;100291.31;;;8.24;64.35
41947;BME280;27638;42.184;24.848;2024-02-15T05:30:14;100287.97;;;8.22;64.41
41947;BME280;27638;42.184;24.848;2024-02-15T05:32:40;100293.09;;;8.23;64.65
41947;BME280;27638;42.184;24.848;2024-02-15T05:35:10;100293.53;;;8.28;64.50
41947;BME280;27638;42.184;24.848;2024-02-15T05:37:37;100293.41;;;8.30;64.09
41947;BME280;27638;42.184;24.848;2024-02-15T05:40:02;100296.03;;;8.30;64.00
41947;BME280;27638;42.184;24.848;2024-02-15T05:42:28;100310.72;;;8.34;64.53
41947;BME280;27638;42.184;24.848;2024-02-15T05:44:53;100311.41;;;8.36;64.79
41947;BME280;27638;42.184;24.848;2024-02-15T05:47:18;100306.44;;;8.52;63.61
41947;BME280;27638;42.184;24.848;2024-02-15T05:49:45;100314.34;;;8.43;63.88
41947;BME280;27638;42.184;24.848;2024-02-15T05:52:12;100319.78;;;8.51;64.03
41947;BME280;27638;42.184;24.848;2024-02-15T05:54:38;100317.16;;;8.60;63.79
41947;BME280;27638;42.184;24.848;2024-02-15T05:57:04;100313.53;;;8.52;63.35
41947;BME280;27638;42.184;24.848;2024-02-15T05:59:30;100317.84;;;8.53;63.50
41947;BME280;27638;42.184;24.848;2024-02-15T06:01:56;100316.59;;;8.57;63.98
41947;BME280;27638;42.184;24.848;2024-02-15T06:04:21;100319.09;;;8.58;64.22
41947;BME280;27638;42.184;24.848;2024-02-15T06:06:48;100323.16;;;8.62;63.90
41947;BME280;27638;42.184;24.848;2024-02-15T06:09:16;100335.50;;;8.62;64.10
41947;BME280;27638;42.184;24.848;2024-02-15T06:11:41;100335.38;;;8.63;63.76
41947;BME280;27638;42.184;24.848;2024-02-15T06:14:09;100333.59;;;8.74;63.92
41947;BME280;27638;42.184;24.848;2024-02-15T06:16:42;100336.78;;;8.77;63.55
41947;BME280;27638;42.184;24.848;2024-02-15T06:19:08;100341.09;;;8.78;62.92
41947;BME280;27638;42.184;24.848;2024-02-15T06:21:33;100338.19;;;8.81;63.44
41947;BME280;27638;42.184;24.848;2024-02-15T06:23:59;100339.16;;;8.80;63.60
41947;BME280;27638;42.184;24.848;2024-02-15T06:26:25;100336.53;;;8.80;63.29
41947;BME280;27638;42.184;24.848;2024-02-15T06:28:50;100344.31;;;8.82;63.18
41947;BME280;27638;42.184;24.848;2024-02-15T06:31:34;100352.38;;;8.80;63.16
41947;BME280;27638;42.184;24.848;2024-02-15T06:34:18;100360.00;;;8.83;63.51
41947;BME280;27638;42.184;24.848;2024-02-15T06:37:02;100356.00;;;8.89;63.69
41947;BME280;27638;42.184;24.848;2024-02-15T06:39:47;100357.97;;;8.96;63.17
41947;BME280;27638;42.184;24.848;2024-02-15T06:42:16;100362.25;;;8.88;62.69
41947;BME280;27638;42.184;24.848;2024-02-15T06:44:48;100370.59;;;8.83;62.97
41947;BME280;27638;42.184;24.848;2024-02-15T06:47:14;100352.63;;;8.77;62.87
41947;BME280;27638;42.184;24.848;2024-02-15T06:49:42;100360.72;;;8.85;62.81
41947;BME280;27638;42.184;24.848;2024-02-15T06:52:09;100366.56;;;8.89;62.90
41947;BME280;27638;42.184;24.848;2024-02-15T06:54:39;100366.69;;;8.87;62.84
41947;BME280;27638;42.184;24.848;2024-02-15T06:57:05;100371.41;;;8.84;62.45
41947;BME280;27638;42.184;24.848;2024-02-15T06:59:30;100369.47;;;8.86;62.99
41947;BME280;27638;42.184;24.848;2024-02-15T07:02:00;100370.59;;;8.83;62.15
41947;BME280;27638;42.184;24.848;2024-02-15T07:04:27;100374.63;;;8.87;62.21
41947;BME280;27638;42.184;24.848;2024-02-15T07:06:52;100370.16;;;8.88;62.03
41947;BME280;27638;42.184;24.848;2024-02-15T07:09:20;100373.09;;;8.85;62.46
41947;BME280;27638;42.184;24.848;2024-02-15T07:11:47;100382.13;;;8.92;62.50
41947;BME280;27638;42.184;24.848;2024-02-15T07:14:13;100371.88;;;8.99;62.27
41947;BME280;27638;42.184;24.848;2024-02-15T07:16:39;100376.47;;;9.06;61.93
41947;BME280;27638;42.184;24.848;2024-02-15T07:19:04;100379.25;;;9.05;61.62
41947;BME280;27638;42.184;24.848;2024-02-15T07:21:31;100374.53;;;9.08;61.89
41947;BME280;27638;42.184;24.848;2024-02-15T07:23:57;100384.81;;;9.21;61.67
41947;BME280;27638;42.184;24.848;2024-02-15T07:26:26;100378.16;;;9.26;61.33
41947;BME280;27638;42.184;24.848;2024-02-15T07:28:53;100382.91;;;9.42;61.19
41947;BME280;27638;42.184;24.848;2024-02-15T07:31:19;100383.06;;;9.60;60.34
41947;BME280;27638;42.184;24.848;2024-02-15T07:33:47;100377.16;;;9.85;59.83
41947;BME280;27638;42.184;24.848;2024-02-15T07:36:12;100372.66;;;10.05;58.84
41947;BME280;27638;42.184;24.848;2024-02-15T07:38:38;100372.50;;;10.16;57.06
41947;BME280;27638;42.184;24.848;2024-02-15T07:41:03;100361.50;;;10.21;56.92
41947;BME280;27638;42.184;24.848;2024-02-15T07:43:29;100372.34;;;10.28;56.71
41947;BME280;27638;42.184;24.848;2024-02-15T07:45:54;100371.34;;;10.38;56.85
41947;BME280;27638;42.184;24.848;2024-02-15T07:48:20;100374.13;;;10.46;57.71
41947;BME280;27638;42.184;24.848;2024-02-15T07:50:45;100385.41;;;10.48;55.81
41947;BME280;27638;42.184;24.848;2024-02-15T07:53:10;100383.16;;;10.53;56.42
41947;BME280;27638;42.184;24.848;2024-02-15T07:55:37;100385.84;;;10.71;56.33
41947;BME280;27638;42.184;24.848;2024-02-15T07:58:04;100374.91;;;10.84;55.74
41947;BME280;27638;42.184;24.848;2024-02-15T08:00:30;100387.22;;;11.03;55.66
41947;BME280;27638;42.184;24.848;2024-02-15T08:02:55;100384.34;;;11.14;54.79
41947;BME280;27638;42.184;24.848;2024-02-15T08:05:22;100381.38;;;11.17;54.25
41947;BME280;27638;42.184;24.848;2024-02-15T08:07:48;100377.00;;;11.26;54.00
41947;BME280;27638;42.184;24.848;2024-02-15T08:10:15;100374.88;;;11.29;53.44
41947;BME280;27638;42.184;24.848;2024-02-15T08:12:45;100376.31;;;11.24;52.97
41947;BME280;27638;42.184;24.848;2024-02-15T08:15:11;100378.59;;;11.18;53.27
41947;BME280;27638;42.184;24.848;2024-02-15T08:17:43;100374.88;;;11.29;54.14
41947;BME280;27638;42.184;24.848;2024-02-15T08:20:12;100378.56;;;11.46;54.54
41947;BME280;27638;42.184;24.848;2024-02-15T08:22:38;100370.28;;;11.49;53.57
41947;BME280;27638;42.184;24.848;2024-02-15T08:25:12;100372.84;;;11.59;52.74
41947;BME280;27638;42.184;24.848;2024-02-15T08:27:47;100377.78;;;11.54;52.34
41947;BME280;27638;42.184;24.848;2024-02-15T08:30:15;100372.19;;;11.57;52.77
41947;BME280;27638;42.184;24.848;2024-02-15T08:32:41;100375.56;;;11.67;52.82
41947;BME280;27638;42.184;24.848;2024-02-15T08:35:11;100375.34;;;11.78;51.63
41947;BME280;27638;42.184;24.848;2024-02-15T08:37:38;100373.06;;;11.83;52.52
41947;BME280;27638;42.184;24.848;2024-02-15T08:40:05;100371.31;;;11.92;52.27
41947;BME280;27638;42.184;24.848;2024-02-15T08:42:42;100370.38;;;12.01;51.64
41947;BME280;27638;42.184;24.848;2024-02-15T08:45:08;100369.13;;;12.13;50.87
41947;BME280;27638;42.184;24.848;2024-02-15T08:47:39;100358.81;;;12.10;51.16
41947;BME280;27638;42.184;24.848;2024-02-15T08:50:06;100365.00;;;12.19;50.84
41947;BME280;27638;42.184;24.848;2024-02-15T08:52:32;100363.16;;;12.11;50.45
41947;BME280;27638;42.184;24.848;2024-02-15T08:54:57;100362.47;;;12.09;50.76
41947;BME280;27638;42.184;24.848;2024-02-15T08:57:24;100372.00;;;12.20;50.95
41947;BME280;27638;42.184;24.848;2024-02-15T08:59:51;100373.50;;;12.22;51.43
41947;BME280;27638;42.184;24.848;2024-02-15T09:02:17;100374.06;;;12.34;51.00
41947;BME280;27638;42.184;24.848;2024-02-15T09:04:43;100369.75;;;12.33;50.40
41947;BME280;27638;42.184;24.848;2024-02-15T09:07:08;100373.38;;;12.32;50.79
41947;BME280;27638;42.184;24.848;2024-02-15T09:09:34;100365.47;;;12.40;50.97
41947;BME280;27638;42.184;24.848;2024-02-15T09:12:02;100363.28;;;12.35;49.84
41947;BME280;27638;42.184;24.848;2024-02-15T09:14:32;100366.13;;;12.42;50.42
41947;BME280;27638;42.184;24.848;2024-02-15T09:16:58;100360.25;;;12.30;50.47
41947;BME280;27638;42.184;24.848;2024-02-15T09:19:23;100366.25;;;12.32;50.20
41947;BME280;27638;42.184;24.848;2024-02-15T09:21:49;100357.34;;;12.41;50.04
41947;BME280;27638;42.184;24.848;2024-02-15T09:24:14;100359.56;;;12.54;51.10
41947;BME280;27638;42.184;24.848;2024-02-15T09:26:41;100357.78;;;12.63;50.37
41947;BME280;27638;42.184;24.848;2024-02-15T09:29:07;100351.81;;;12.61;50.38
41947;BME280;27638;42.184;24.848;2024-02-15T09:31:33;100353.13;;;12.57;50.20
41947;BME280;27638;42.184;24.848;2024-02-15T09:34:00;100337.38;;;12.63;49.91
41947;BME280;27638;42.184;24.848;2024-02-15T09:36:25;100335.22;;;12.67;49.66
41947;BME280;27638;42.184;24.848;2024-02-15T09:38:53;100342.00;;;12.61;50.50
41947;BME280;27638;42.184;24.848;2024-02-15T09:41:19;100336.84;;;12.60;50.23
41947;BME280;27638;42.184;24.848;2024-02-15T09:43:44;100331.22;;;12.63;50.01
41947;BME280;27638;42.184;24.848;2024-02-15T09:46:10;100335.34;;;12.57;49.04
41947;BME280;27638;42.184;24.848;2024-02-15T09:48:36;100332.38;;;12.60;50.18
41947;BME280;27638;42.184;24.848;2024-02-15T09:51:03;100325.22;;;12.61;49.99
41947;BME280;27638;42.184;24.848;2024-02-15T09:53:29;100312.47;;;12.64;49.65
41947;BME280;27638;42.184;24.848;2024-02-15T09:55:55;100311.31;;;12.67;50.54
41947;BME280;27638;42.184;24.848;2024-02-15T09:58:28;100322.44;;;12.70;50.28
41947;BME280;27638;42.184;24.848;2024-02-15T10:00:54;100315.97;;;12.73;49.75
41947;BME280;27638;42.184;24.848;2024-02-15T10:03:21;100309.19;;;12.78;49.48
41947;BME280;27638;42.184;24.848;2024-02-15T10:05:48;100307.69;;;12.84;49.81
41947;BME280;27638;42.184;24.848;2024-02-15T10:08:17;100311.34;;;12.83;48.59
41947;BME280;27638;42.184;24.848;2024-02-15T10:10:43;100307.19;;;12.81;49.34
41947;BME280;27638;42.184;24.848;2024-02-15T10:13:13;100305.03;;;12.84;48.66
41947;BME280;27638;42.184;24.848;2024-02-15T10:15:39;100302.22;;;12.86;49.10
41947;BME280;27638;42.184;24.848;2024-02-15T10:18:10;100298.22;;;12.82;49.16
41947;BME280;27638;42.184;24.848;2024-02-15T10:20:41;100294.06;;;12.87;49.07
41947;BME280;27638;42.184;24.848;2024-02-15T10:25:35;100288.78;;;12.95;48.62
41947;BME280;27638;42.184;24.848;2024-02-15T10:28:05;100290.63;;;13.03;48.70
41947;BME280;27638;42.184;24.848;2024-02-15T10:30:35;100289.94;;;13.09;49.00
41947;BME280;27638;42.184;24.848;2024-02-15T10:33:02;100273.66;;;13.12;49.15
41947;BME280;27638;42.184;24.848;2024-02-15T10:35:27;100277.38;;;13.19;49.25
41947;BME280;27638;42.184;24.848;2024-02-15T10:38:07;100280.03;;;13.27;48.41
41947;BME280;27638;42.184;24.848;2024-02-15T10:40:33;100276.38;;;13.28;48.61
41947;BME280;27638;42.184;24.848;2024-02-15T10:42:59;100267.38;;;13.29;47.38
41947;BME280;27638;42.184;24.848;2024-02-15T10:45:25;100275.88;;;13.33;47.20
41947;BME280;27638;42.184;24.848;2024-02-15T10:47:51;100266.88;;;13.34;47.53
41947;BME280;27638;42.184;24.848;2024-02-15T10:50:17;100260.91;;;13.40;47.47
41947;BME280;27638;42.184;24.848;2024-02-15T10:52:56;100256.72;;;13.46;47.60
41947;BME280;27638;42.184;24.848;2024-02-15T10:56:01;100253.06;;;13.47;47.73
41947;BME280;27638;42.184;24.848;2024-02-15T10:58:19;100253.75;;;13.49;46.65
41947;BME280;27638;42.184;24.848;2024-02-15T11:00:46;100255.91;;;13.45;46.73
41947;BME280;27638;42.184;24.848;2024-02-15T11:03:19;100243.25;;;13.47;46.82
41947;BME280;27638;42.184;24.848;2024-02-15T11:05:51;100245.75;;;13.49;47.50
41947;BME280;27638;42.184;24.848;2024-02-15T11:08:17;100237.78;;;13.49;46.63
41947;BME280;27638;42.184;24.848;2024-02-15T11:10:43;100242.94;;;13.50;47.15
41947;BME280;27638;42.184;24.848;2024-02-15T11:13:10;100237.97;;;13.55;46.39
41947;BME280;27638;42.184;24.848;2024-02-15T11:18:02;100232.47;;;13.57;45.86
41947;BME280;27638;42.184;24.848;2024-02-15T11:22:58;100225.63;;;13.46;45.12
41947;BME280;27638;42.184;24.848;2024-02-15T11:25:34;100226.47;;;13.47;46.56
41947;BME280;27638;42.184;24.848;2024-02-15T11:30:49;100217.97;;;13.51;46.82
41947;BME280;27638;42.184;24.848;2024-02-15T11:33:28;100213.03;;;13.56;46.88
41947;BME280;27638;42.184;24.848;2024-02-15T11:36:12;100210.19;;;13.58;45.98
41947;BME280;27638;42.184;24.848;2024-02-15T11:38:38;100212.16;;;13.48;46.45
41947;BME280;27638;42.184;24.848;2024-02-15T11:41:09;100211.16;;;13.49;46.33
41947;BME280;27638;42.184;24.848;2024-02-15T11:43:49;100209.34;;;13.57;46.05
41947;BME280;27638;42.184;24.848;2024-02-15T11:46:16;100206.69;;;13.57;46.08
41947;BME280;27638;42.184;24.848;2024-02-15T11:48:45;100201.53;;;13.56;45.34
41947;BME280;27638;42.184;24.848;2024-02-15T11:51:27;100199.22;;;13.45;45.01
41947;BME280;27638;42.184;24.848;2024-02-15T11:54:06;100206.03;;;13.55;45.69
41947;BME280;27638;42.184;24.848;2024-02-15T11:56:48;100198.69;;;13.49;45.95
41947;BME280;27638;42.184;24.848;2024-02-15T11:59:16;100201.53;;;13.48;46.05
41947;BME280;27638;42.184;24.848;2024-02-15T12:01:56;100206.88;;;13.56;46.40
41947;BME280;27638;42.184;24.848;2024-02-15T12:04:40;100198.53;;;13.67;46.39
41947;BME280;27638;42.184;24.848;2024-02-15T12:07:24;100196.34;;;13.70;45.93
41947;BME280;27638;42.184;24.848;2024-02-15T12:10:15;100192.53;;;13.65;46.27
41947;BME280;27638;42.184;24.848;2024-02-15T12:13:08;100188.69;;;13.76;46.01
41947;BME280;27638;42.184;24.848;2024-02-15T12:16:01;100195.84;;;13.67;44.96
41947;BME280;27638;42.184;24.848;2024-02-15T12:18:46;100187.91;;;13.59;44.41
41947;BME280;27638;42.184;24.848;2024-02-15T12:21:20;100187.25;;;13.57;44.75
41947;BME280;27638;42.184;24.848;2024-02-15T12:23:48;100178.88;;;13.68;44.70
41947;BME280;27638;42.184;24.848;2024-02-15T12:26:19;100179.88;;;13.67;44.79
41947;BME280;27638;42.184;24.848;2024-02-15T12:28:44;100182.38;;;13.68;44.79
41947;BME280;27638;42.184;24.848;2024-02-15T12:31:09;100180.72;;;13.67;44.84
41947;BME280;27638;42.184;24.848;2024-02-15T12:33:38;100180.06;;;13.65;44.14
41947;BME280;27638;42.184;24.848;2024-02-15T12:36:05;100180.03;;;13.73;45.57
41947;BME280;27638;42.184;24.848;2024-02-15T12:38:30;100182.88;;;13.72;45.35
41947;BME280;27638;42.184;24.848;2024-02-15T12:40:56;100185.81;;;13.85;45.09
41947;BME280;27638;42.184;24.848;2024-02-15T12:43:22;100173.00;;;13.89;44.28
41947;BME280;27638;42.184;24.848;2024-02-15T12:45:47;100171.13;;;13.97;43.77
41947;BME280;27638;42.184;24.848;2024-02-15T12:48:13;100177.31;;;13.90;43.45
41947;BME280;27638;42.184;24.848;2024-02-15T12:50:40;100167.88;;;13.79;43.61
41947;BME280;27638;42.184;24.848;2024-02-15T12:53:06;100170.03;;;13.76;43.56
41947;BME280;27638;42.184;24.848;2024-02-15T12:55:34;100173.22;;;13.71;43.01
41947;BME280;27638;42.184;24.848;2024-02-15T12:58:04;100170.72;;;13.78;42.61